RYR908G LIMC-LIBP
Flight info
| Callsign | RYR908G |
|---|---|
| Flight time | 0h 53m |
| Altitude | 34000 |
| Route | VAKON DCT IBUPU DCT NISIL DCT LUMAV DCT GIPUK DCT MASEG DCT LAPVO Y579 INKIM |
| Aircraft | B738/M-SDE2E3FGHIRWXY/LB1 |
Departure
| Time | 2026-04-30 07:51 |
|---|---|
| Airport | Milan Malpensa International Airport (LIMC) |
Arrival
| Time | 2026-04-30 08:45 |
|---|---|
| Airport | Abruzzo Airport (LIBP) |
| Time | Latitude | Longitude | Altitude | Speed | Heading |
|---|---|---|---|---|---|
| 2026-04-30 07:37 | 45.62291 | 8.72032 | 724 ft | 0 kts | 78° |
| 2026-04-30 07:46 | 45.62292 | 8.72034 | 724 ft | 1 kts | 78° |
| 2026-04-30 07:46 | 45.62301 | 8.72095 | 725 ft | 7 kts | 73° |
| 2026-04-30 07:46 | 45.62302 | 8.72116 | 725 ft | 2 kts | 95° |
| 2026-04-30 07:47 | 45.62275 | 8.72135 | 723 ft | 10 kts | 169° |
| 2026-04-30 07:47 | 45.62209 | 8.72212 | 722 ft | 15 kts | 92° |
| 2026-04-30 07:47 | 45.62227 | 8.72353 | 724 ft | 14 kts | 79° |
| 2026-04-30 07:47 | 45.62247 | 8.72487 | 722 ft | 13 kts | 79° |
| 2026-04-30 07:48 | 45.62263 | 8.72616 | 721 ft | 13 kts | 80° |
| 2026-04-30 07:48 | 45.62281 | 8.72745 | 725 ft | 14 kts | 79° |
| 2026-04-30 07:48 | 45.62299 | 8.72877 | 723 ft | 13 kts | 79° |
| 2026-04-30 07:48 | 45.62297 | 8.73001 | 722 ft | 13 kts | 127° |
| 2026-04-30 07:49 | 45.62214 | 8.73045 | 718 ft | 13 kts | 168° |
| 2026-04-30 07:49 | 45.62111 | 8.73074 | 716 ft | 19 kts | 169° |
| 2026-04-30 07:49 | 45.61949 | 8.73118 | 717 ft | 27 kts | 169° |
| 2026-04-30 07:49 | 45.61762 | 8.73183 | 704 ft | 28 kts | 151° |
| 2026-04-30 07:50 | 45.61653 | 8.73396 | 702 ft | 26 kts | 123° |
| 2026-04-30 07:50 | 45.61588 | 8.73588 | 697 ft | 20 kts | 95° |
| 2026-04-30 07:50 | 45.61654 | 8.73735 | 701 ft | 20 kts | 353° |
| 2026-04-30 07:50 | 45.61791 | 8.73691 | 704 ft | 24 kts | 349° |
| 2026-04-30 07:51 | 45.62173 | 8.73588 | 715 ft | 95 kts | 347° |
| 2026-04-30 07:51 | 45.63073 | 8.73360 | 750 ft | 160 kts | 354° |
| 2026-04-30 07:51 | 45.63815 | 8.73195 | 1206 ft | 162 kts | 353° |
| 2026-04-30 07:51 | 45.65196 | 8.73016 | 2252 ft | 169 kts | 14° |
| 2026-04-30 07:52 | 45.66198 | 8.73832 | 3108 ft | 169 kts | 54° |
| 2026-04-30 07:52 | 45.66736 | 8.75355 | 3901 ft | 175 kts | 68° |
| 2026-04-30 07:52 | 45.67260 | 8.76968 | 4745 ft | 183 kts | 68° |
| 2026-04-30 07:52 | 45.67936 | 8.78573 | 5398 ft | 200 kts | 47° |
| 2026-04-30 07:53 | 45.69109 | 8.79702 | 5981 ft | 210 kts | 37° |
| 2026-04-30 07:53 | 45.70332 | 8.80939 | 6671 ft | 215 kts | 39° |
| 2026-04-30 07:53 | 45.71511 | 8.82218 | 7360 ft | 216 kts | 39° |
| 2026-04-30 07:53 | 45.72517 | 8.83837 | 7869 ft | 225 kts | 70° |
| 2026-04-30 07:54 | 45.72609 | 8.86096 | 8390 ft | 237 kts | 107° |
| 2026-04-30 07:54 | 45.71780 | 8.88227 | 9044 ft | 255 kts | 125° |
| 2026-04-30 07:54 | 45.70691 | 8.90316 | 9966 ft | 266 kts | 126° |
| 2026-04-30 07:54 | 45.69553 | 8.92479 | 10806 ft | 278 kts | 126° |
| 2026-04-30 07:55 | 45.68775 | 8.93977 | 11356 ft | 285 kts | 125° |
| 2026-04-30 07:55 | 45.67590 | 8.96283 | 12272 ft | 292 kts | 124° |
| 2026-04-30 07:55 | 45.65948 | 8.99503 | 13301 ft | 310 kts | 124° |
| 2026-04-30 07:55 | 45.65098 | 9.01177 | 13798 ft | 319 kts | 123° |
| 2026-04-30 07:56 | 45.63701 | 9.04989 | 14739 ft | 330 kts | 109° |
| 2026-04-30 07:56 | 45.63139 | 9.07088 | 15157 ft | 338 kts | 108° |
| 2026-04-30 07:56 | 45.62318 | 9.10302 | 15787 ft | 349 kts | 107° |
| 2026-04-30 07:56 | 45.61485 | 9.13589 | 16573 ft | 355 kts | 107° |
| 2026-04-30 07:57 | 45.60645 | 9.16873 | 17433 ft | 357 kts | 107° |
| 2026-04-30 07:57 | 45.59779 | 9.20215 | 18271 ft | 361 kts | 108° |
| 2026-04-30 07:57 | 45.58894 | 9.23593 | 18987 ft | 365 kts | 108° |
| 2026-04-30 07:57 | 45.57990 | 9.27018 | 19648 ft | 370 kts | 108° |
| 2026-04-30 07:58 | 45.57072 | 9.30473 | 20298 ft | 374 kts | 108° |
| 2026-04-30 07:58 | 45.56139 | 9.33974 | 20797 ft | 380 kts | 108° |
| 2026-04-30 07:58 | 45.55186 | 9.37541 | 21213 ft | 389 kts | 108° |
| 2026-04-30 07:58 | 45.54214 | 9.41169 | 21778 ft | 394 kts | 108° |
| 2026-04-30 07:59 | 45.53241 | 9.44789 | 22396 ft | 397 kts | 108° |
| 2026-04-30 07:59 | 45.52243 | 9.48498 | 22902 ft | 403 kts | 108° |
| 2026-04-30 07:59 | 45.51231 | 9.52255 | 23411 ft | 408 kts | 108° |
| 2026-04-30 08:00 | 45.49179 | 9.59851 | 24371 ft | 414 kts | 108° |
| 2026-04-30 08:00 | 45.48121 | 9.63758 | 24820 ft | 418 kts | 108° |
| 2026-04-30 08:00 | 45.47082 | 9.67592 | 25232 ft | 422 kts | 109° |
| 2026-04-30 08:00 | 45.46018 | 9.71510 | 25642 ft | 426 kts | 109° |
| 2026-04-30 08:01 | 45.44941 | 9.75467 | 26058 ft | 429 kts | 109° |
| 2026-04-30 08:01 | 45.43854 | 9.79457 | 26461 ft | 433 kts | 109° |
| 2026-04-30 08:01 | 45.42761 | 9.83459 | 26959 ft | 434 kts | 109° |
| 2026-04-30 08:01 | 45.41665 | 9.87468 | 27469 ft | 434 kts | 109° |
| 2026-04-30 08:02 | 45.39471 | 9.95471 | 28419 ft | 434 kts | 109° |
| 2026-04-30 08:02 | 45.38380 | 9.99441 | 28852 ft | 435 kts | 109° |
| 2026-04-30 08:03 | 45.36158 | 10.07509 | 29798 ft | 435 kts | 109° |
| 2026-04-30 08:03 | 45.33955 | 10.15480 | 30609 ft | 436 kts | 110° |
| 2026-04-30 08:03 | 45.32843 | 10.19495 | 31011 ft | 435 kts | 110° |
| 2026-04-30 08:04 | 45.31734 | 10.23492 | 31384 ft | 435 kts | 110° |
| 2026-04-30 08:04 | 45.30613 | 10.27526 | 31741 ft | 436 kts | 110° |
| 2026-04-30 08:04 | 45.29496 | 10.31538 | 32150 ft | 435 kts | 110° |
| 2026-04-30 08:04 | 45.28398 | 10.35476 | 32531 ft | 434 kts | 110° |
| 2026-04-30 08:05 | 45.27283 | 10.39469 | 32901 ft | 434 kts | 110° |
| 2026-04-30 08:05 | 45.26171 | 10.43444 | 33220 ft | 434 kts | 110° |
| 2026-04-30 08:05 | 45.25054 | 10.47431 | 33531 ft | 435 kts | 110° |
| 2026-04-30 08:05 | 45.23945 | 10.51386 | 33872 ft | 434 kts | 110° |
| 2026-04-30 08:06 | 45.22825 | 10.55370 | 34197 ft | 434 kts | 110° |
| 2026-04-30 08:06 | 45.20563 | 10.63404 | 34271 ft | 441 kts | 110° |
| 2026-04-30 08:07 | 45.18294 | 10.71429 | 34250 ft | 435 kts | 110° |
| 2026-04-30 08:07 | 45.15613 | 10.79120 | 34263 ft | 437 kts | 119° |
| 2026-04-30 08:08 | 45.12493 | 10.86493 | 34274 ft | 439 kts | 120° |
| 2026-04-30 08:08 | 45.09334 | 10.93970 | 34273 ft | 440 kts | 120° |
| 2026-04-30 08:09 | 45.06210 | 11.01449 | 34272 ft | 442 kts | 120° |
| 2026-04-30 08:09 | 45.03096 | 11.08914 | 34269 ft | 443 kts | 120° |
| 2026-04-30 08:10 | 44.99956 | 11.16421 | 34266 ft | 443 kts | 120° |
| 2026-04-30 08:10 | 44.96845 | 11.23896 | 34266 ft | 443 kts | 119° |
| 2026-04-30 08:11 | 44.93780 | 11.31455 | 34272 ft | 443 kts | 119° |
| 2026-04-30 08:11 | 44.90715 | 11.39008 | 34273 ft | 443 kts | 119° |
| 2026-04-30 08:12 | 44.87634 | 11.46553 | 34277 ft | 443 kts | 119° |
| 2026-04-30 08:12 | 44.84573 | 11.54023 | 34280 ft | 443 kts | 119° |
| 2026-04-30 08:13 | 44.81431 | 11.61517 | 34276 ft | 444 kts | 124° |
| 2026-04-30 08:13 | 44.77443 | 11.68106 | 34284 ft | 443 kts | 134° |
| 2026-04-30 08:14 | 44.73228 | 11.74490 | 34280 ft | 444 kts | 134° |
| 2026-04-30 08:14 | 44.69066 | 11.80878 | 34280 ft | 445 kts | 133° |
| 2026-04-30 08:15 | 44.64883 | 11.87357 | 34281 ft | 448 kts | 133° |
| 2026-04-30 08:15 | 44.60627 | 11.93940 | 34298 ft | 463 kts | 134° |
| 2026-04-30 08:16 | 44.56223 | 12.00764 | 34298 ft | 477 kts | 133° |
| 2026-04-30 08:16 | 44.51767 | 12.07759 | 34295 ft | 490 kts | 133° |
| 2026-04-30 08:17 | 44.47166 | 12.14980 | 34299 ft | 502 kts | 133° |
| 2026-04-30 08:17 | 44.42453 | 12.22350 | 34298 ft | 513 kts | 133° |
| 2026-04-30 08:18 | 44.37635 | 12.29855 | 34297 ft | 521 kts | 133° |
| 2026-04-30 08:18 | 44.32789 | 12.37381 | 34292 ft | 526 kts | 134° |
| 2026-04-30 08:19 | 44.27876 | 12.44992 | 34284 ft | 527 kts | 134° |
| 2026-04-30 08:19 | 44.23023 | 12.52494 | 33849 ft | 511 kts | 134° |
| 2026-04-30 08:19 | 44.20662 | 12.56138 | 33462 ft | 503 kts | 134° |
| 2026-04-30 08:20 | 44.18326 | 12.59736 | 33017 ft | 497 kts | 134° |
| 2026-04-30 08:20 | 44.16049 | 12.63237 | 32578 ft | 492 kts | 135° |
| 2026-04-30 08:20 | 44.13750 | 12.66767 | 32166 ft | 487 kts | 135° |
| 2026-04-30 08:20 | 44.11486 | 12.70239 | 31746 ft | 482 kts | 135° |
| 2026-04-30 08:21 | 44.09234 | 12.73688 | 31334 ft | 478 kts | 135° |
| 2026-04-30 08:21 | 44.07003 | 12.77103 | 30922 ft | 473 kts | 135° |
| 2026-04-30 08:21 | 44.04824 | 12.80434 | 30513 ft | 467 kts | 135° |
| 2026-04-30 08:21 | 44.02621 | 12.83797 | 30076 ft | 464 kts | 135° |
| 2026-04-30 08:22 | 44.00480 | 12.87059 | 29635 ft | 460 kts | 135° |
| 2026-04-30 08:22 | 43.98330 | 12.90334 | 29207 ft | 455 kts | 135° |
| 2026-04-30 08:22 | 43.96197 | 12.93578 | 28765 ft | 452 kts | 135° |
| 2026-04-30 08:22 | 43.94086 | 12.96785 | 28363 ft | 447 kts | 135° |
| 2026-04-30 08:23 | 43.91999 | 12.99952 | 27946 ft | 443 kts | 135° |
| 2026-04-30 08:23 | 43.89919 | 13.03106 | 27534 ft | 439 kts | 135° |
| 2026-04-30 08:23 | 43.87881 | 13.06192 | 27131 ft | 436 kts | 135° |
| 2026-04-30 08:23 | 43.85840 | 13.09279 | 26731 ft | 432 kts | 135° |
| 2026-04-30 08:24 | 43.83808 | 13.12350 | 26338 ft | 429 kts | 135° |
| 2026-04-30 08:24 | 43.81798 | 13.15382 | 25946 ft | 426 kts | 134° |
| 2026-04-30 08:24 | 43.79795 | 13.18402 | 25556 ft | 423 kts | 134° |
| 2026-04-30 08:24 | 43.77819 | 13.21378 | 25169 ft | 420 kts | 134° |
| 2026-04-30 08:25 | 43.75845 | 13.24349 | 24782 ft | 417 kts | 134° |
| 2026-04-30 08:25 | 43.73908 | 13.27259 | 24406 ft | 415 kts | 134° |
| 2026-04-30 08:25 | 43.71946 | 13.30206 | 24019 ft | 415 kts | 134° |
| 2026-04-30 08:25 | 43.69990 | 13.33139 | 23594 ft | 414 kts | 134° |
| 2026-04-30 08:26 | 43.68036 | 13.36068 | 23140 ft | 412 kts | 134° |
| 2026-04-30 08:26 | 43.66093 | 13.38975 | 22737 ft | 409 kts | 134° |
| 2026-04-30 08:26 | 43.64187 | 13.41826 | 22356 ft | 406 kts | 134° |
| 2026-04-30 08:26 | 43.62272 | 13.44689 | 21967 ft | 404 kts | 134° |
| 2026-04-30 08:27 | 43.60371 | 13.47526 | 21588 ft | 401 kts | 134° |
| 2026-04-30 08:27 | 43.58458 | 13.50347 | 21166 ft | 402 kts | 136° |
| 2026-04-30 08:27 | 43.56299 | 13.52758 | 20609 ft | 409 kts | 148° |
| 2026-04-30 08:27 | 43.53830 | 13.54959 | 20189 ft | 435 kts | 149° |
| 2026-04-30 08:28 | 43.51244 | 13.57204 | 19738 ft | 439 kts | 149° |
| 2026-04-30 08:28 | 43.48647 | 13.59455 | 19308 ft | 438 kts | 149° |
| 2026-04-30 08:28 | 43.46078 | 13.61697 | 18876 ft | 435 kts | 149° |
| 2026-04-30 08:28 | 43.43518 | 13.63944 | 18445 ft | 433 kts | 149° |
| 2026-04-30 08:29 | 43.41016 | 13.66153 | 17962 ft | 431 kts | 149° |
| 2026-04-30 08:29 | 43.38491 | 13.68387 | 17511 ft | 428 kts | 149° |
| 2026-04-30 08:29 | 43.36000 | 13.70593 | 17097 ft | 424 kts | 148° |
| 2026-04-30 08:29 | 43.33519 | 13.72789 | 16676 ft | 421 kts | 148° |
| 2026-04-30 08:30 | 43.31071 | 13.74955 | 16264 ft | 417 kts | 148° |
| 2026-04-30 08:30 | 43.28661 | 13.77084 | 15867 ft | 414 kts | 148° |
| 2026-04-30 08:30 | 43.26242 | 13.79218 | 15456 ft | 410 kts | 148° |
| 2026-04-30 08:30 | 43.23863 | 13.81315 | 15048 ft | 400 kts | 148° |
| 2026-04-30 08:31 | 43.21551 | 13.83352 | 14661 ft | 390 kts | 148° |
| 2026-04-30 08:31 | 43.19277 | 13.85353 | 14291 ft | 384 kts | 148° |
| 2026-04-30 08:31 | 43.17039 | 13.87320 | 13903 ft | 378 kts | 148° |
| 2026-04-30 08:31 | 43.14862 | 13.89247 | 13479 ft | 374 kts | 146° |
| 2026-04-30 08:32 | 43.12789 | 13.91379 | 13023 ft | 370 kts | 141° |
| 2026-04-30 08:32 | 43.10807 | 13.93612 | 12647 ft | 365 kts | 140° |
| 2026-04-30 08:32 | 43.08875 | 13.95839 | 12275 ft | 360 kts | 139° |
| 2026-04-30 08:32 | 43.06968 | 13.98033 | 11954 ft | 356 kts | 140° |
| 2026-04-30 08:33 | 43.05087 | 14.00176 | 11594 ft | 357 kts | 140° |
| 2026-04-30 08:33 | 43.03168 | 14.02345 | 11234 ft | 357 kts | 140° |
| 2026-04-30 08:33 | 43.01240 | 14.04508 | 10827 ft | 356 kts | 140° |
| 2026-04-30 08:33 | 42.99332 | 14.06641 | 10488 ft | 351 kts | 140° |
| 2026-04-30 08:34 | 42.97469 | 14.08717 | 10335 ft | 341 kts | 140° |
| 2026-04-30 08:34 | 42.95641 | 14.10750 | 10160 ft | 337 kts | 140° |
| 2026-04-30 08:34 | 42.93839 | 14.12754 | 9804 ft | 339 kts | 140° |
| 2026-04-30 08:34 | 42.92009 | 14.14789 | 9475 ft | 339 kts | 140° |
| 2026-04-30 08:35 | 42.90198 | 14.16798 | 9133 ft | 330 kts | 139° |
| 2026-04-30 08:35 | 42.88445 | 14.18741 | 8826 ft | 318 kts | 139° |
| 2026-04-30 08:35 | 42.86752 | 14.20617 | 8531 ft | 307 kts | 139° |
| 2026-04-30 08:35 | 42.85665 | 14.21822 | 8382 ft | 300 kts | 139° |
| 2026-04-30 08:36 | 42.84116 | 14.23743 | 7922 ft | 306 kts | 133° |
| 2026-04-30 08:36 | 42.82624 | 14.25814 | 7589 ft | 306 kts | 132° |
| 2026-04-30 08:36 | 42.81136 | 14.27914 | 7194 ft | 307 kts | 132° |
| 2026-04-30 08:36 | 42.79652 | 14.29990 | 6871 ft | 305 kts | 133° |
| 2026-04-30 08:37 | 42.78188 | 14.32016 | 6549 ft | 300 kts | 133° |
| 2026-04-30 08:37 | 42.76739 | 14.34003 | 6234 ft | 290 kts | 133° |
| 2026-04-30 08:37 | 42.75353 | 14.35894 | 6085 ft | 275 kts | 132° |
| 2026-04-30 08:37 | 42.74026 | 14.37699 | 5948 ft | 262 kts | 132° |
| 2026-04-30 08:38 | 42.72780 | 14.39392 | 5826 ft | 250 kts | 132° |
| 2026-04-30 08:38 | 42.71557 | 14.41053 | 5737 ft | 247 kts | 132° |
| 2026-04-30 08:38 | 42.70329 | 14.42674 | 5609 ft | 247 kts | 139° |
| 2026-04-30 08:38 | 42.68727 | 14.43558 | 5339 ft | 252 kts | 179° |
| 2026-04-30 08:39 | 42.67065 | 14.42998 | 5126 ft | 245 kts | 214° |
| 2026-04-30 08:39 | 42.65695 | 14.41710 | 4838 ft | 240 kts | 219° |
| 2026-04-30 08:39 | 42.64367 | 14.40355 | 4563 ft | 236 kts | 220° |
| 2026-04-30 08:39 | 42.63067 | 14.39007 | 4326 ft | 233 kts | 221° |
| 2026-04-30 08:40 | 42.61800 | 14.37691 | 4229 ft | 223 kts | 220° |
| 2026-04-30 08:40 | 42.60615 | 14.36463 | 4184 ft | 212 kts | 221° |
| 2026-04-30 08:40 | 42.59425 | 14.35225 | 3912 ft | 217 kts | 220° |
| 2026-04-30 08:40 | 42.58219 | 14.33972 | 3637 ft | 220 kts | 220° |
| 2026-04-30 08:41 | 42.57001 | 14.32709 | 3336 ft | 217 kts | 220° |
| 2026-04-30 08:41 | 42.55835 | 14.31501 | 3039 ft | 204 kts | 220° |
| 2026-04-30 08:41 | 42.54740 | 14.30366 | 2769 ft | 193 kts | 220° |
| 2026-04-30 08:41 | 42.53695 | 14.29281 | 2524 ft | 186 kts | 220° |
| 2026-04-30 08:42 | 42.52677 | 14.28223 | 2263 ft | 183 kts | 220° |
| 2026-04-30 08:42 | 42.51676 | 14.27183 | 2024 ft | 179 kts | 220° |
| 2026-04-30 08:42 | 42.50713 | 14.26184 | 1786 ft | 169 kts | 221° |
| 2026-04-30 08:42 | 42.49814 | 14.25251 | 1584 ft | 154 kts | 220° |
| 2026-04-30 08:43 | 42.48991 | 14.24396 | 1399 ft | 143 kts | 220° |
| 2026-04-30 08:43 | 42.48202 | 14.23575 | 1181 ft | 142 kts | 220° |
| 2026-04-30 08:43 | 42.47429 | 14.22772 | 963 ft | 137 kts | 220° |
| 2026-04-30 08:43 | 42.46677 | 14.21986 | 842 ft | 137 kts | 220° |
| 2026-04-30 08:44 | 42.45937 | 14.21195 | 797 ft | 136 kts | 221° |
| 2026-04-30 08:44 | 42.45180 | 14.20402 | 631 ft | 137 kts | 219° |
| 2026-04-30 08:44 | 42.44429 | 14.19649 | 332 ft | 135 kts | 219° |
| 2026-04-30 08:44 | 42.43705 | 14.18891 | 65 ft | 126 kts | 219° |
| 2026-04-30 08:45 | 42.43097 | 14.18262 | 44 ft | 92 kts | 217° |
| 2026-04-30 08:45 | 42.42698 | 14.17850 | 52 ft | 57 kts | 217° |
| 2026-04-30 08:45 | 42.42410 | 14.17553 | 53 ft | 37 kts | 216° |
| 2026-04-30 08:45 | 42.42286 | 14.17492 | 51 ft | 13 kts | 144° |
| 2026-04-30 08:46 | 42.42274 | 14.17603 | 53 ft | 13 kts | 81° |
| 2026-04-30 08:46 | 42.42296 | 14.17715 | 52 ft | 14 kts | 52° |
| 2026-04-30 08:46 | 42.42387 | 14.17817 | 52 ft | 21 kts | 38° |
| 2026-04-30 08:46 | 42.42523 | 14.17960 | 49 ft | 27 kts | 38° |
| 2026-04-30 08:47 | 42.42669 | 14.18113 | 48 ft | 26 kts | 38° |
| 2026-04-30 08:47 | 42.42809 | 14.18257 | 45 ft | 24 kts | 37° |
| 2026-04-30 08:47 | 42.42939 | 14.18390 | 45 ft | 23 kts | 37° |
| 2026-04-30 08:47 | 42.43020 | 14.18558 | 42 ft | 22 kts | 81° |
| 2026-04-30 08:48 | 42.43056 | 14.18662 | 43 ft | 6 kts | 74° |
| 2026-04-30 08:48 | 42.43040 | 14.18713 | 41 ft | 5 kts | 129° |
| 2026-04-30 08:48 | 42.43028 | 14.18732 | 43 ft | 1 kts | 130° |
| 2026-04-30 08:48 | 42.43027 | 14.18733 | 43 ft | 0 kts | 130° |